Time;durP1;ratioP1;P1;durP2;ratioP2;P2;SDS_P1;SDS_P2;PMS_P1;PMS_P2;Temp;Humidity;BMP_temperature;BMP_pressure;BME280_temperature;BME280_humidity;BME280_pressure;Samples;Min_cycle;Max_cycle;Signal;HPM_P1;HPM_P2
2021/08/04 00:01:59;;;;;;;11.57;8.63;;;15.40;99.90;;;;;;5032940;28;20164;-73
2021/08/04 00:04:24;;;;;;;14.50;8.73;;;15.40;99.90;;;;;;5032841;28;20641;-73
2021/08/04 00:06:50;;;;;;;9.00;7.80;;;15.40;99.90;;;;;;5032389;28;20192;-73
2021/08/04 00:09:15;;;;;;;9.17;8.20;;;15.40;99.90;;;;;;5032458;28;20204;-73
2021/08/04 00:11:41;;;;;;;8.33;7.10;;;15.40;99.90;;;;;;5032701;28;20259;-73
2021/08/04 00:14:07;;;;;;;9.73;7.97;;;15.40;99.90;;;;;;5032349;28;20177;-73
2021/08/04 00:16:33;;;;;;;10.23;8.47;;;15.40;99.90;;;;;;5051450;28;20234;-73
2021/08/04 00:18:59;;;;;;;8.73;7.40;;;15.40;99.90;;;;;;5051146;28;20168;-73
2021/08/04 00:21:24;;;;;;;7.90;7.10;;;15.40;99.90;;;;;;5051179;28;20912;-73
2021/08/04 00:23:50;;;;;;;9.80;8.33;;;15.40;99.90;;;;;;5052408;28;20161;-73
2021/08/04 00:26:16;;;;;;;10.43;8.93;;;15.40;99.90;;;;;;5051997;28;20211;-73
2021/08/04 00:28:41;;;;;;;8.03;7.23;;;15.50;99.90;;;;;;5052070;28;20160;-73
2021/08/04 00:31:07;;;;;;;10.37;7.37;;;15.50;99.90;;;;;;5051966;28;20212;-73
2021/08/04 00:33:32;;;;;;;9.03;7.33;;;15.50;99.90;;;;;;5051876;28;20295;-73
2021/08/04 00:35:58;;;;;;;10.73;7.80;;;15.50;99.90;;;;;;5048057;28;20197;-73
2021/08/04 00:38:23;;;;;;;9.90;8.20;;;15.50;99.90;;;;;;5032595;28;20180;-73
2021/08/04 00:40:49;;;;;;;10.83;9.00;;;15.50;99.90;;;;;;5032085;28;20165;-73
2021/08/04 00:43:15;;;;;;;8.60;7.27;;;15.50;99.90;;;;;;5038028;28;20157;-73
2021/08/04 00:45:40;;;;;;;10.53;8.00;;;15.50;99.90;;;;;;5055546;28;20161;-73
2021/08/04 00:48:06;;;;;;;9.23;8.33;;;15.50;99.90;;;;;;5055671;28;20153;-73
2021/08/04 00:50:33;;;;;;;10.63;8.23;;;15.50;99.90;;;;;;5055566;28;20188;-73
2021/08/04 00:52:59;;;;;;;12.43;8.60;;;15.50;99.90;;;;;;5051633;28;20211;-73
2021/08/04 00:55:26;;;;;;;13.23;8.93;;;15.50;99.90;;;;;;5035767;28;20454;-73
2021/08/04 00:57:52;;;;;;;11.47;8.97;;;15.50;99.90;;;;;;5035268;28;20587;-73
2021/08/04 01:00:18;;;;;;;9.57;8.57;;;15.50;99.90;;;;;;5035299;28;20408;-73
2021/08/04 01:02:51;;;;;;;10.90;8.20;;;15.50;99.90;;;;;;5035354;28;20450;-73
2021/08/04 01:05:26;;;;;;;11.23;8.60;;;15.50;99.90;;;;;;5035653;28;20149;-73
2021/08/04 01:10:40;;;;;;;10.13;8.93;;;15.50;99.90;;;;;;5081207;28;20968;-72
2021/08/04 01:13:26;;;;;;;10.63;8.87;;;15.50;99.90;;;;;;5069344;28;20837;-72
2021/08/04 01:18:55;;;;;;;10.50;9.40;;;15.50;99.90;;;;;;5046225;28;20514;-71
2021/08/04 01:21:28;;;;;;;12.53;10.07;;;15.50;99.90;;;;;;5045382;28;20391;-71
2021/08/04 01:24:05;;;;;;;9.50;8.27;;;15.50;99.90;;;;;;5046220;28;20799;-71
2021/08/04 01:26:40;;;;;;;11.70;9.63;;;15.50;99.90;;;;;;5058941;28;20450;-71
2021/08/04 01:29:10;;;;;;;11.60;9.47;;;15.50;99.90;;;;;;5026827;28;20405;-71
2021/08/04 01:31:37;;;;;;;12.60;10.03;;;15.50;99.90;;;;;;5026099;28;20887;-71
2021/08/04 01:34:04;;;;;;;12.80;10.70;;;15.50;99.90;;;;;;5026395;27;20404;-71
2021/08/04 01:36:30;;;;;;;12.77;10.20;;;15.50;99.90;;;;;;5026580;28;20447;-71
2021/08/04 01:38:58;;;;;;;11.23;9.60;;;15.50;99.90;;;;;;5046182;28;20391;-71
2021/08/04 01:41:24;;;;;;;14.77;11.43;;;15.50;99.90;;;;;;5045924;28;20395;-71
2021/08/04 01:43:51;;;;;;;12.40;10.90;;;15.50;99.90;;;;;;5043555;28;20429;-71
2021/08/04 01:46:17;;;;;;;15.13;11.07;;;15.50;99.90;;;;;;5026606;28;20392;-71
2021/08/04 01:48:44;;;;;;;15.90;11.40;;;15.50;99.90;;;;;;5026001;28;20403;-71
2021/08/04 01:51:12;;;;;;;15.23;11.83;;;15.50;99.90;;;;;;5026292;28;20393;-71
2021/08/04 01:53:40;;;;;;;13.53;11.33;;;15.50;99.90;;;;;;5025934;28;20399;-71
2021/08/04 01:56:07;;;;;;;13.13;10.90;;;15.50;99.90;;;;;;5025772;28;20398;-71
2021/08/04 01:58:33;;;;;;;14.57;11.73;;;15.50;99.90;;;;;;5025789;28;20428;-71
2021/08/04 02:00:58;;;;;;;13.60;11.47;;;15.50;99.90;;;;;;5026558;28;20426;-71
2021/08/04 02:03:24;;;;;;;12.63;10.50;;;15.50;99.90;;;;;;5026304;28;20176;-71
2021/08/04 02:05:51;;;;;;;13.80;11.73;;;15.50;99.90;;;;;;5025931;28;20166;-71
2021/08/04 02:13:55;;;;;;;13.00;10.30;;;15.50;99.90;;;;;;5076534;27;20512;-71
2021/08/04 02:16:33;;;;;;;13.70;11.10;;;15.60;99.90;;;;;;5069432;28;20418;-71
2021/08/04 02:19:11;;;;;;;10.17;8.93;;;15.50;99.90;;;;;;5069064;28;20425;-71
2021/08/04 02:21:39;;;;;;;12.67;11.30;;;15.50;99.90;;;;;;5068823;28;20974;-71
2021/08/04 02:24:04;;;;;;;16.63;10.57;;;15.50;99.90;;;;;;5069670;28;20395;-71
2021/08/04 02:26:32;;;;;;;12.23;10.80;;;15.50;99.90;;;;;;5069483;28;20463;-71
2021/08/04 02:28:59;;;;;;;11.87;10.67;;;15.50;99.90;;;;;;5069633;28;20152;-71
2021/08/04 02:31:25;;;;;;;13.47;10.37;;;15.50;99.90;;;;;;5069325;28;20394;-71
2021/08/04 02:33:52;;;;;;;13.93;11.17;;;15.50;99.90;;;;;;5069586;28;20402;-71
2021/08/04 02:36:18;;;;;;;12.80;11.57;;;15.50;99.90;;;;;;5054702;28;20501;-71
2021/08/04 02:38:44;;;;;;;14.90;11.33;;;15.50;99.90;;;;;;5062464;28;20489;-71
2021/08/04 02:41:11;;;;;;;14.43;11.00;;;15.50;99.90;;;;;;5069339;28;20673;-71
2021/08/04 02:43:37;;;;;;;13.70;11.77;;;15.50;99.90;;;;;;5069214;28;20445;-71
2021/08/04 02:46:03;;;;;;;13.27;10.80;;;15.50;99.90;;;;;;5069177;28;20404;-71
2021/08/04 02:48:29;;;;;;;13.87;12.47;;;15.40;99.90;;;;;;5069477;28;20434;-71
2021/08/04 02:51:01;;;;;;;15.87;11.63;;;15.40;99.90;;;;;;5069014;28;20398;-71
2021/08/04 02:53:27;;;;;;;13.93;10.37;;;15.40;99.90;;;;;;5052984;28;20226;-71
2021/08/04 02:55:53;;;;;;;13.57;11.17;;;15.40;99.90;;;;;;5049599;28;20411;-71
2021/08/04 02:58:19;;;;;;;15.20;11.37;;;15.40;99.90;;;;;;5049466;28;20157;-72
2021/08/04 03:00:45;;;;;;;12.37;10.63;;;15.40;99.90;;;;;;5049420;28;20890;-71
2021/08/04 03:03:10;;;;;;;15.07;11.60;;;15.40;99.90;;;;;;5048953;28;20884;-71
2021/08/04 03:05:36;;;;;;;13.73;10.67;;;15.40;99.90;;;;;;5049061;28;20168;-71
2021/08/04 03:08:02;;;;;;;13.60;11.53;;;15.40;99.90;;;;;;5048800;28;20160;-71
2021/08/04 03:10:28;;;;;;;15.03;11.10;;;15.40;99.90;;;;;;5049187;28;20272;-71
2021/08/04 03:12:53;;;;;;;14.30;12.10;;;15.40;99.90;;;;;;5048938;28;20208;-71
2021/08/04 03:15:19;;;;;;;15.33;12.93;;;15.30;99.90;;;;;;5057736;28;20873;-71
2021/08/04 03:17:45;;;;;;;14.10;12.63;;;15.30;99.90;;;;;;5068499;28;20221;-71
2021/08/04 03:20:12;;;;;;;13.90;11.67;;;15.30;99.90;;;;;;5068476;28;20242;-71
2021/08/04 03:22:43;;;;;;;15.77;12.97;;;15.20;99.90;;;;;;5068339;28;20160;-71
2021/08/04 03:25:10;;;;;;;18.63;13.80;;;15.20;99.90;;;;;;5054598;28;20752;-71
2021/08/04 03:27:35;;;;;;;15.77;12.70;;;15.10;99.90;;;;;;5038101;28;20412;-71
2021/08/04 03:30:01;;;;;;;20.53;12.90;;;15.10;99.90;;;;;;5035848;28;20759;-71
2021/08/04 03:32:26;;;;;;;13.60;11.87;;;15.00;99.90;;;;;;5035047;28;20621;-71
2021/08/04 03:34:52;;;;;;;16.07;12.30;;;15.00;99.90;;;;;;5035183;28;20239;-71
2021/08/04 03:37:17;;;;;;;15.33;12.63;;;14.90;99.90;;;;;;5035145;28;20165;-71
2021/08/04 03:39:43;;;;;;;18.87;13.60;;;14.90;99.90;;;;;;5035000;28;20187;-71
2021/08/04 03:42:08;;;;;;;15.37;13.40;;;14.90;99.90;;;;;;5034772;28;20168;-71
2021/08/04 03:44:34;;;;;;;18.10;13.00;;;14.80;99.90;;;;;;5036047;28;20187;-71
2021/08/04 03:46:59;;;;;;;18.60;13.60;;;14.80;99.90;;;;;;5035406;28;20682;-71
2021/08/04 03:49:25;;;;;;;16.93;12.90;;;14.70;99.90;;;;;;5034974;28;20172;-71
2021/08/04 03:51:50;;;;;;;18.20;14.13;;;14.70;99.90;;;;;;5034686;28;20189;-71
2021/08/04 03:54:16;;;;;;;16.17;13.30;;;14.70;99.90;;;;;;5034811;28;20157;-71
2021/08/04 03:56:41;;;;;;;21.73;14.73;;;14.60;99.90;;;;;;5034690;28;20602;-71
2021/08/04 03:59:07;;;;;;;19.60;15.40;;;14.60;99.90;;;;;;5034630;28;20299;-71
2021/08/04 04:01:32;;;;;;;16.30;14.10;;;14.50;99.90;;;;;;5035565;28;20775;-71
2021/08/04 04:03:58;;;;;;;19.23;14.20;;;14.50;99.90;;;;;;5035492;28;20278;-71
2021/08/04 04:06:23;;;;;;;18.00;15.50;;;14.50;99.90;;;;;;5034857;28;20243;-71
2021/08/04 04:08:49;;;;;;;18.30;14.50;;;14.50;99.90;;;;;;5034963;28;20641;-71
2021/08/04 04:11:15;;;;;;;16.63;14.80;;;14.50;99.90;;;;;;5038861;28;20182;-71
2021/08/04 04:13:41;;;;;;;19.43;14.33;;;14.50;99.90;;;;;;5045875;28;20493;-71
2021/08/04 04:16:07;;;;;;;22.93;15.73;;;14.40;99.90;;;;;;5039453;28;20495;-71
2021/08/04 04:18:32;;;;;;;19.80;14.37;;;14.40;99.90;;;;;;5046530;28;20191;-71
2021/08/04 04:20:58;;;;;;;20.80;17.30;;;14.40;99.90;;;;;;5045688;28;20211;-71
2021/08/04 04:23:24;;;;;;;20.80;15.87;;;14.40;99.90;;;;;;5049565;28;20543;-71
2021/08/04 04:25:49;;;;;;;19.20;16.57;;;14.50;99.90;;;;;;5041763;28;20515;-71
2021/08/04 04:28:15;;;;;;;19.50;16.43;;;14.50;99.90;;;;;;5043705;28;20271;-71
2021/08/04 04:30:40;;;;;;;18.73;16.27;;;14.50;99.90;;;;;;5052821;28;20629;-71
2021/08/04 04:33:06;;;;;;;19.60;15.40;;;14.50;99.90;;;;;;5039103;28;20200;-71
2021/08/04 04:35:32;;;;;;;23.33;17.23;;;14.50;99.90;;;;;;5046717;28;20629;-71
2021/08/04 04:37:57;;;;;;;17.80;15.43;;;14.60;99.90;;;;;;5043093;28;20257;-71
2021/08/04 04:40:23;;;;;;;20.87;15.63;;;14.60;99.90;;;;;;5037207;28;20177;-71
2021/08/04 04:42:48;;;;;;;24.07;17.70;;;14.60;99.90;;;;;;5044285;28;20215;-71
2021/08/04 04:45:14;;;;;;;21.83;16.80;;;14.70;99.90;;;;;;5033708;28;20318;-71
2021/08/04 04:47:40;;;;;;;19.00;15.90;;;14.70;99.90;;;;;;5036321;28;20271;-71
2021/08/04 04:50:06;;;;;;;21.93;16.47;;;14.80;99.90;;;;;;5050672;28;21038;-71
2021/08/04 04:52:31;;;;;;;20.37;16.60;;;14.80;99.90;;;;;;5037428;28;20204;-71
2021/08/04 04:54:57;;;;;;;18.20;15.40;;;14.80;99.90;;;;;;5044213;28;20962;-71
2021/08/04 04:57:22;;;;;;;17.67;15.43;;;14.90;99.90;;;;;;5040678;28;20176;-71
2021/08/04 04:59:48;;;;;;;18.03;15.30;;;14.90;99.90;;;;;;5046450;28;20375;-71
2021/08/04 05:02:13;;;;;;;16.87;13.70;;;15.00;99.90;;;;;;5037163;28;20650;-71
2021/08/04 05:04:39;;;;;;;19.87;16.13;;;15.00;99.90;;;;;;5044734;28;20191;-71
2021/08/04 05:07:05;;;;;;;20.83;15.47;;;15.10;99.90;;;;;;5038360;28;20190;-71
2021/08/04 05:09:30;;;;;;;18.47;14.97;;;15.10;99.90;;;;;;5039731;28;20189;-71
2021/08/04 05:11:56;;;;;;;21.77;14.37;;;15.20;99.90;;;;;;5044813;28;20226;-71
2021/08/04 05:14:21;;;;;;;21.80;16.20;;;15.20;99.90;;;;;;5043173;28;20179;-71
2021/08/04 05:16:47;;;;;;;19.67;14.37;;;15.30;99.90;;;;;;5037978;28;20241;-71
2021/08/04 05:19:12;;;;;;;19.03;14.30;;;15.30;99.90;;;;;;5032581;28;20180;-71
2021/08/04 05:21:38;;;;;;;18.20;15.17;;;15.30;99.90;;;;;;5037789;28;20188;-71
2021/08/04 05:24:05;;;;;;;18.63;14.20;;;15.30;99.90;;;;;;5042600;28;20175;-71
2021/08/04 05:26:31;;;;;;;18.00;14.23;;;15.40;99.90;;;;;;5036787;28;20196;-71
2021/08/04 05:28:57;;;;;;;23.20;14.40;;;15.40;99.90;;;;;;5040983;28;20478;-71
2021/08/04 05:31:23;;;;;;;20.00;15.20;;;15.50;99.90;;;;;;5037375;28;20212;-71
2021/08/04 05:33:48;;;;;;;19.43;14.80;;;15.60;99.90;;;;;;5041861;28;20943;-71
2021/08/04 05:36:14;;;;;;;16.80;13.97;;;15.60;99.90;;;;;;5040492;28;20235;-71
2021/08/04 05:38:39;;;;;;;15.17;13.50;;;15.70;99.90;;;;;;5034417;28;20263;-71
2021/08/04 05:41:05;;;;;;;18.00;14.60;;;15.80;99.90;;;;;;5043149;28;20215;-71
2021/08/04 05:43:31;;;;;;;18.60;14.80;;;15.90;99.90;;;;;;5043506;28;20216;-71
2021/08/04 05:45:56;;;;;;;19.03;15.80;;;16.10;99.90;;;;;;5040061;28;20187;-71
2021/08/04 05:48:22;;;;;;;16.63;13.80;;;16.20;99.90;;;;;;5041203;28;20477;-71
2021/08/04 05:50:47;;;;;;;16.63;13.77;;;16.30;99.90;;;;;;5042102;28;20184;-71
2021/08/04 05:53:13;;;;;;;15.10;13.50;;;16.40;99.90;;;;;;5044275;28;20236;-71
2021/08/04 05:55:39;;;;;;;14.73;13.10;;;16.50;99.90;;;;;;5030910;28;20181;-71
2021/08/04 05:58:04;;;;;;;14.60;12.50;;;16.60;99.90;;;;;;5039004;28;20177;-71
2021/08/04 06:00:30;;;;;;;15.87;13.30;;;16.60;99.90;;;;;;5034709;28;20200;-71
2021/08/04 06:02:55;;;;;;;13.80;11.60;;;16.70;99.90;;;;;;5041865;28;20177;-71
2021/08/04 06:05:21;;;;;;;15.10;11.63;;;16.70;99.90;;;;;;5031546;28;20180;-71
2021/08/04 06:07:46;;;;;;;16.13;13.60;;;16.70;99.90;;;;;;5045028;28;20518;-71
2021/08/04 06:10:12;;;;;;;19.00;13.90;;;16.70;99.90;;;;;;5043769;28;20676;-71
2021/08/04 06:12:38;;;;;;;18.30;15.40;;;16.80;99.90;;;;;;5039624;28;20685;-71
2021/08/04 06:15:04;;;;;;;17.60;15.70;;;16.80;99.90;;;;;;5041053;28;20569;-71
2021/08/04 06:17:30;;;;;;;19.07;14.80;;;16.80;99.90;;;;;;5045160;28;20440;-71
2021/08/04 06:19:55;;;;;;;16.77;14.40;;;16.80;99.90;;;;;;5035272;28;20427;-71
2021/08/04 06:22:21;;;;;;;16.97;15.17;;;16.80;99.90;;;;;;5032430;28;20180;-71
2021/08/04 06:24:46;;;;;;;22.17;17.47;;;16.90;99.90;;;;;;5041425;28;20183;-71
2021/08/04 06:27:12;;;;;;;19.33;14.80;;;17.00;99.90;;;;;;5039935;28;20821;-71
2021/08/04 06:29:38;;;;;;;17.73;14.10;;;17.00;99.90;;;;;;5040299;28;20180;-71
2021/08/04 06:32:03;;;;;;;15.53;12.87;;;17.10;99.90;;;;;;5040488;28;20269;-71
2021/08/04 06:34:29;;;;;;;16.57;13.53;;;17.20;99.90;;;;;;5043405;28;20179;-71
2021/08/04 06:36:55;;;;;;;20.73;15.47;;;17.30;99.90;;;;;;5039208;28;20428;-71
2021/08/04 06:39:20;;;;;;;17.00;13.83;;;17.30;99.90;;;;;;5044293;28;20182;-71
2021/08/04 06:41:46;;;;;;;17.47;14.17;;;17.30;99.90;;;;;;5040460;28;20188;-71
2021/08/04 06:44:11;;;;;;;18.20;15.10;;;17.30;99.90;;;;;;5039126;28;20209;-71
2021/08/04 06:46:40;;;;;;;14.80;13.20;;;17.30;99.90;;;;;;5043139;28;20183;-71
2021/08/04 06:49:06;;;;;;;14.90;13.30;;;17.40;99.90;;;;;;5035241;28;20291;-71
2021/08/04 06:51:33;;;;;;;20.57;13.83;;;17.40;99.90;;;;;;5040074;28;20430;-71
2021/08/04 06:53:59;;;;;;;16.97;14.47;;;17.50;99.90;;;;;;5037458;28;20431;-71
2021/08/04 06:56:24;;;;;;;16.60;13.50;;;17.50;99.90;;;;;;5038158;28;20489;-71
2021/08/04 06:58:50;;;;;;;17.93;14.53;;;17.50;99.90;;;;;;5045571;28;20204;-71
2021/08/04 07:01:16;;;;;;;16.13;13.80;;;17.50;99.90;;;;;;5041656;28;20184;-71
2021/08/04 07:03:42;;;;;;;17.20;12.07;;;17.50;99.90;;;;;;5042556;28;20626;-71
2021/08/04 07:06:09;;;;;;;16.00;12.97;;;17.50;99.90;;;;;;5045294;28;20188;-71
2021/08/04 07:08:35;;;;;;;14.80;12.27;;;17.60;99.90;;;;;;5038240;28;20685;-70
2021/08/04 07:11:01;;;;;;;13.30;11.90;;;17.60;99.90;;;;;;5041822;28;20439;-70
2021/08/04 07:13:26;;;;;;;13.87;12.00;;;17.70;99.90;;;;;;5046167;28;20608;-70
2021/08/04 07:15:52;;;;;;;13.37;11.00;;;17.70;99.90;;;;;;5046917;28;20318;-71
2021/08/04 07:18:18;;;;;;;15.63;12.10;;;17.80;99.90;;;;;;5048836;28;20278;-71
2021/08/04 07:20:44;;;;;;;14.30;12.33;;;17.90;99.90;;;;;;5042392;28;20411;-71
2021/08/04 07:23:09;;;;;;;13.27;11.87;;;18.00;99.90;;;;;;5045115;28;20187;-71
2021/08/04 07:25:35;;;;;;;12.40;11.00;;;18.00;99.90;;;;;;5048997;28;20184;-71
2021/08/04 07:28:01;;;;;;;14.17;11.67;;;18.10;99.90;;;;;;5041578;28;20181;-71
2021/08/04 07:30:26;;;;;;;15.93;11.87;;;18.20;99.90;;;;;;5043847;28;20177;-71
2021/08/04 07:32:52;;;;;;;15.90;12.87;;;18.20;99.90;;;;;;5046373;28;20200;-71
2021/08/04 07:35:19;;;;;;;15.70;13.00;;;18.30;99.90;;;;;;5044578;28;20191;-71
2021/08/04 07:37:45;;;;;;;13.73;11.03;;;18.40;99.90;;;;;;5044961;28;20450;-71
2021/08/04 07:40:12;;;;;;;14.63;13.07;;;18.40;99.90;;;;;;5044795;28;20477;-71
2021/08/04 07:42:37;;;;;;;12.47;10.63;;;18.50;99.90;;;;;;5044335;28;20441;-71
2021/08/04 07:45:04;;;;;;;18.57;12.20;;;18.80;99.90;;;;;;5043897;28;20431;-71
2021/08/04 07:47:30;;;;;;;12.37;10.23;;;19.30;99.90;;;;;;5044329;28;20261;-71
2021/08/04 07:49:55;;;;;;;13.20;10.07;;;19.70;99.90;;;;;;5045755;28;20435;-71
2021/08/04 07:52:21;;;;;;;12.93;10.60;;;20.10;99.90;;;;;;5044199;28;20208;-71
2021/08/04 07:54:46;;;;;;;10.70;9.60;;;20.40;99.90;;;;;;5040373;28;20568;-71
2021/08/04 07:57:12;;;;;;;10.47;9.37;;;20.60;99.90;;;;;;5044603;28;20206;-71
2021/08/04 07:59:38;;;;;;;9.67;8.67;;;20.80;99.90;;;;;;5040346;28;20196;-71
2021/08/04 08:02:04;;;;;;;12.70;9.23;;;21.00;99.90;;;;;;5041775;28;20595;-71
2021/08/04 08:04:31;;;;;;;10.20;9.20;;;21.00;99.90;;;;;;5042752;28;20184;-71
2021/08/04 08:06:57;;;;;;;9.87;8.50;;;21.30;99.90;;;;;;5042313;28;20451;-71
2021/08/04 08:09:24;;;;;;;9.93;8.93;;;21.50;99.90;;;;;;5047610;28;20453;-71
2021/08/04 08:11:50;;;;;;;11.20;9.07;;;21.70;99.90;;;;;;5041166;28;20597;-71
2021/08/04 08:14:16;;;;;;;8.63;7.77;;;22.10;99.90;;;;;;5048329;28;20435;-71
2021/08/04 08:16:42;;;;;;;9.37;7.70;;;22.60;99.90;;;;;;5041385;28;20433;-71
2021/08/04 08:19:07;;;;;;;15.30;7.13;;;23.00;99.90;;;;;;5041637;28;20940;-71
2021/08/04 08:21:33;;;;;;;12.50;8.17;;;23.30;99.90;;;;;;5041693;28;20648;-71
2021/08/04 08:23:59;;;;;;;10.20;7.73;;;23.60;99.90;;;;;;5038524;28;20534;-71
2021/08/04 08:26:24;;;;;;;7.80;6.63;;;23.80;99.90;;;;;;5040901;28;20173;-71
2021/08/04 08:28:51;;;;;;;7.67;5.57;;;24.00;99.90;;;;;;5042770;28;20192;-71
2021/08/04 08:31:17;;;;;;;5.87;4.80;;;24.10;99.90;;;;;;5043363;28;20211;-71
2021/08/04 08:33:42;;;;;;;4.67;4.00;;;24.50;99.90;;;;;;5039335;28;20959;-71
2021/08/04 08:36:08;;;;;;;6.00;5.30;;;25.10;99.90;;;;;;5041824;28;20446;-71
2021/08/04 08:38:34;;;;;;;5.40;4.20;;;25.20;99.90;;;;;;5043921;28;20621;-71
2021/08/04 08:41:00;;;;;;;5.10;4.60;;;25.60;99.90;;;;;;5036154;28;20644;-71
2021/08/04 08:43:26;;;;;;;8.60;5.13;;;26.40;99.10;;;;;;5038106;28;20180;-71
2021/08/04 08:45:53;;;;;;;4.70;4.07;;;27.00;97.40;;;;;;5044684;28;20441;-71
2021/08/04 08:48:19;;;;;;;5.20;3.47;;;27.90;95.20;;;;;;5044750;28;20180;-71
2021/08/04 08:50:46;;;;;;;4.70;4.30;;;29.00;87.30;;;;;;5041618;28;20461;-72
2021/08/04 08:53:12;;;;;;;4.83;4.33;;;30.20;80.10;;;;;;5041364;28;20966;-72
2021/08/04 08:55:39;;;;;;;4.93;4.20;;;30.50;71.80;;;;;;5036816;28;20438;-72
2021/08/04 08:58:04;;;;;;;4.83;4.37;;;30.80;71.70;;;;;;5042158;28;20525;-72
2021/08/04 09:00:30;;;;;;;5.17;3.80;;;31.30;67.90;;;;;;5042604;28;21054;-72
2021/08/04 09:02:55;;;;;;;5.60;5.10;;;31.60;65.50;;;;;;5044831;28;20231;-72
2021/08/04 09:05:21;;;;;;;6.40;5.30;;;31.30;62.50;;;;;;5040159;28;20195;-72
2021/08/04 09:07:47;;;;;;;6.77;5.60;;;30.50;66.60;;;;;;5044169;28;20192;-72
2021/08/04 09:10:25;;;;;;;5.97;3.87;;;29.50;68.90;;;;;;5040273;28;20197;-72
2021/08/04 09:12:53;;;;;;;4.70;4.27;;;28.60;68.60;;;;;;5041084;28;20470;-72
2021/08/04 09:15:24;;;;;;;5.80;4.30;;;28.10;70.90;;;;;;5041509;28;20434;-72
2021/08/04 09:18:03;;;;;;;4.30;3.90;;;28.20;69.30;;;;;;5041645;28;20423;-72
2021/08/04 09:20:30;;;;;;;3.73;3.33;;;28.70;72.20;;;;;;5038178;28;20439;-72
2021/08/04 09:23:00;;;;;;;11.03;4.97;;;29.50;69.10;;;;;;5036602;28;20909;-72
2021/08/04 09:25:26;;;;;;;4.33;3.90;;;30.00;66.10;;;;;;5042103;28;20445;-72
2021/08/04 09:27:53;;;;;;;4.53;4.07;;;29.90;63.00;;;;;;5031262;28;20477;-72
2021/08/04 09:33:19;;;;;;;4.07;3.70;;;28.80;65.70;;;;;;5061105;28;20537;-71
2021/08/04 09:35:48;;;;;;;4.50;4.07;;;28.20;69.90;;;;;;5048801;28;20951;-71
2021/08/04 09:38:15;;;;;;;5.27;4.50;;;27.70;69.50;;;;;;5033934;28;20485;-71
2021/08/04 09:40:41;;;;;;;4.63;3.83;;;27.20;73.20;;;;;;5040025;28;20813;-71
2021/08/04 09:43:07;;;;;;;6.87;3.90;;;26.70;75.20;;;;;;5044034;28;20435;-71
2021/08/04 09:48:24;;;;;;;5.07;4.57;;;26.20;78.50;;;;;;5110457;27;20533;-72
2021/08/04 09:56:12;;;;;;;4.93;4.43;;;24.60;85.90;;;;;;5064876;28;21104;-71
2021/08/04 09:58:42;;;;;;;5.37;4.53;;;23.90;88.40;;;;;;5046638;28;21010;-72
2021/08/04 10:01:11;;;;;;;4.30;3.90;;;23.90;90.30;;;;;;5040293;28;20497;-71
2021/08/04 10:03:37;;;;;;;4.07;3.77;;;23.80;89.70;;;;;;5043597;28;20485;-71
2021/08/04 10:06:03;;;;;;;6.10;4.90;;;23.70;90.60;;;;;;5041086;28;20425;-71
2021/08/04 10:08:29;;;;;;;6.20;4.47;;;23.60;91.40;;;;;;5041224;28;20427;-71
2021/08/04 10:10:57;;;;;;;5.20;3.90;;;23.40;91.80;;;;;;5040992;28;20176;-71
2021/08/04 10:13:26;;;;;;;4.03;3.60;;;23.40;93.00;;;;;;5040540;28;20585;-71
2021/08/04 10:15:54;;;;;;;5.83;4.57;;;23.40;92.50;;;;;;5042070;28;20462;-71
2021/08/04 10:18:23;;;;;;;5.33;4.83;;;23.60;93.40;;;;;;5039484;28;20426;-71
2021/08/04 10:20:51;;;;;;;4.20;3.90;;;23.70;92.60;;;;;;5039398;28;20419;-71
2021/08/04 10:23:18;;;;;;;4.17;3.77;;;23.70;92.20;;;;;;5041048;28;20570;-71
2021/08/04 10:25:45;;;;;;;4.50;4.10;;;23.60;91.70;;;;;;5041079;28;20438;-71
2021/08/04 10:28:12;;;;;;;4.57;3.70;;;23.50;93.10;;;;;;5038189;28;20439;-71
2021/08/04 10:30:38;;;;;;;4.00;3.70;;;23.40;92.20;;;;;;5040065;28;20801;-71
2021/08/04 10:33:05;;;;;;;5.77;5.13;;;23.40;93.10;;;;;;5037245;28;20424;-71
2021/08/04 10:35:31;;;;;;;4.90;4.40;;;23.40;92.70;;;;;;5038544;28;20850;-71
2021/08/04 10:37:57;;;;;;;5.03;4.63;;;23.30;92.10;;;;;;5042645;28;20427;-71
2021/08/04 10:40:25;;;;;;;4.77;4.27;;;23.10;91.90;;;;;;5041121;28;20419;-71
2021/08/04 10:42:50;;;;;;;7.50;5.80;;;23.10;93.90;;;;;;5040704;28;20954;-71
2021/08/04 10:48:22;;;;;;;6.60;5.00;;;23.10;94.30;;;;;;5045033;28;20543;-71
2021/08/04 10:51:17;;;;;;;6.40;5.00;;;23.20;94.40;;;;;;5031854;28;20780;-71
2021/08/04 10:59:29;;;;;;;5.33;4.83;;;23.00;94.50;;;;;;5037440;28;20574;-72
2021/08/04 11:07:19;;;;;;;6.30;4.30;;;23.10;95.20;;;;;;5020564;27;21102;-71
2021/08/04 11:15:19;;;;;;;5.43;4.93;;;23.20;95.80;;;;;;5076877;28;20526;-73
2021/08/04 11:18:13;;;;;;;6.57;3.70;;;23.30;94.80;;;;;;5059551;28;20426;-73
2021/08/04 11:21:00;;;;;;;4.33;3.87;;;23.20;95.90;;;;;;5057603;28;20429;-73
2021/08/04 11:23:46;;;;;;;5.53;5.03;;;23.00;94.20;;;;;;5066372;28;20487;-73
2021/08/04 11:26:36;;;;;;;6.03;4.23;;;22.90;95.30;;;;;;5044896;28;20796;-73
2021/08/04 11:29:04;;;;;;;6.00;5.50;;;22.70;96.60;;;;;;5049696;28;20450;-73
2021/08/04 11:31:29;;;;;;;5.73;5.17;;;22.50;96.90;;;;;;5063161;28;20954;-73
2021/08/04 11:33:57;;;;;;;5.50;5.00;;;22.30;96.30;;;;;;5047453;28;20469;-73
2021/08/04 11:36:27;;;;;;;6.60;5.90;;;22.20;97.00;;;;;;5044699;28;20188;-73
2021/08/04 11:39:01;;;;;;;6.10;5.50;;;22.00;96.90;;;;;;5042796;28;20485;-73
2021/08/04 11:41:32;;;;;;;7.33;6.63;;;21.90;97.70;;;;;;5046953;28;20927;-73
2021/08/04 11:44:08;;;;;;;6.60;6.00;;;21.80;99.00;;;;;;5042062;28;20805;-73
2021/08/04 11:49:18;;;;;;;8.27;7.47;;;21.60;99.90;;;;;;5038572;28;20687;-72
2021/08/04 11:54:31;;;;;;;7.30;6.60;;;21.60;99.90;;;;;;5038520;28;20997;-71
2021/08/04 11:56:57;;;;;;;6.60;5.83;;;21.60;99.90;;;;;;5021321;28;20449;-71
2021/08/04 11:59:23;;;;;;;8.10;5.80;;;21.50;99.90;;;;;;5032742;28;20453;-71
2021/08/04 12:02:00;;;;;;;6.50;5.90;;;21.40;99.90;;;;;;5037277;28;20976;-72
2021/08/04 12:04:27;;;;;;;7.47;6.67;;;21.40;99.90;;;;;;5040305;28;20211;-71
2021/08/04 12:07:02;;;;;;;7.63;6.20;;;21.30;99.90;;;;;;5046073;28;20503;-71
2021/08/04 12:09:30;;;;;;;9.13;7.17;;;21.30;99.90;;;;;;5042365;28;20433;-71
2021/08/04 12:11:57;;;;;;;8.13;7.33;;;21.10;99.90;;;;;;5040564;28;20435;-71
2021/08/04 12:14:23;;;;;;;8.43;6.60;;;21.00;99.90;;;;;;5037555;28;21046;-71
2021/08/04 12:16:52;;;;;;;8.47;7.00;;;21.00;99.90;;;;;;5030262;28;20956;-71
2021/08/04 12:19:42;;;;;;;7.20;6.60;;;20.90;99.90;;;;;;5036509;28;20446;-71
2021/08/04 12:22:19;;;;;;;8.60;7.30;;;20.90;99.90;;;;;;5038902;28;20431;-71
2021/08/04 12:24:50;;;;;;;7.13;6.53;;;20.90;99.90;;;;;;5033778;28;20442;-72
2021/08/04 12:38:11;;;;;;;7.30;6.53;;;21.00;99.90;;;;;;5091035;27;20555;-71
2021/08/04 12:40:38;;;;;;;7.17;6.60;;;21.00;99.90;;;;;;5080079;28;20442;-71
2021/08/04 12:43:04;;;;;;;7.37;6.67;;;21.00;99.90;;;;;;5075931;28;20440;-71
2021/08/04 12:45:30;;;;;;;7.13;6.60;;;20.90;99.90;;;;;;5084223;28;20421;-71
2021/08/04 12:47:58;;;;;;;7.10;6.40;;;20.90;99.90;;;;;;5079693;28;20458;-71
2021/08/04 12:50:30;;;;;;;7.80;7.10;;;20.90;99.90;;;;;;5078593;28;20303;-71
2021/08/04 12:52:58;;;;;;;6.87;6.33;;;20.80;99.90;;;;;;5099901;28;20591;-71
2021/08/04 12:55:24;;;;;;;11.00;8.27;;;20.90;99.90;;;;;;5087622;28;20516;-71
2021/08/04 12:58:06;;;;;;;7.47;6.70;;;20.80;99.90;;;;;;5085429;28;20885;-71
2021/08/04 13:00:35;;;;;;;7.63;6.90;;;20.80;99.90;;;;;;5086702;28;20487;-71
2021/08/04 13:03:03;;;;;;;8.30;7.60;;;20.80;99.90;;;;;;5087438;28;20431;-71
2021/08/04 13:05:29;;;;;;;10.80;9.80;;;20.70;99.90;;;;;;5080617;28;20425;-71
2021/08/04 13:07:55;;;;;;;7.43;6.83;;;20.60;99.90;;;;;;5085113;28;20420;-71
2021/08/04 13:10:41;;;;;;;10.20;7.80;;;20.40;99.90;;;;;;5086244;28;20767;-71
2021/08/04 13:13:07;;;;;;;8.80;7.90;;;20.30;99.90;;;;;;5079201;28;20162;-71
2021/08/04 13:15:53;;;;;;;8.50;7.57;;;20.20;99.90;;;;;;5069925;28;20429;-71
2021/08/04 13:18:20;;;;;;;8.53;7.70;;;20.00;99.90;;;;;;5096757;28;21406;-71
2021/08/04 13:20:46;;;;;;;10.83;8.10;;;19.90;99.90;;;;;;5088044;28;20417;-71
2021/08/04 13:23:14;;;;;;;9.47;8.33;;;19.90;99.90;;;;;;5077987;28;20412;-71
2021/08/04 13:28:21;;;;;;;11.77;7.10;;;19.80;99.90;;;;;;5102355;27;20550;-71
2021/08/04 13:33:30;;;;;;;7.33;6.70;;;19.70;99.90;;;;;;5056409;28;20681;-74
2021/08/04 13:36:00;;;;;;;8.30;7.60;;;19.70;99.90;;;;;;5037271;28;20522;-74
2021/08/04 13:38:27;;;;;;;8.97;7.70;;;19.80;99.90;;;;;;5037232;28;20431;-74
2021/08/04 13:40:53;;;;;;;8.00;7.30;;;19.80;99.90;;;;;;5035241;28;20530;-73